Middleton Island, Alaska
Current Conditions -  °F | °C
As of 2:56 AM on Saturday 22 Nov 2014 (Local Time) from PAMD Reporting Station
Overcast Overcast  
Wind Chill: 36°   Ceiling: 3700
Heat Index: 43°   Visibility: 10mi
Dew Point: 37°   Wind: 14mph
Humidity: 81%   Direction: 110°ESE
Pressure: 29.02"   Gusts: NA
Location:  59.43°N, 146.33°W
Report Text: PAMD 221156Z 11012KT 10SM FEW026 BKN037 OVC110 06/03 A2902 RMK AO1 P0004 60015 70043 10060 20040 52003
Loading
Personal Weather Stations






























Interactive Weather Map New forecast layout! Learn more

10-Day Weather Forecast

Advertisements
Track Severe Weather on mobile